createdAt,value
2023-04-27T00:00:33.781Z,12.50
2023-04-27T00:01:33.770Z,14.30
2023-04-27T00:02:33.916Z,10.20
2023-04-27T00:03:34.072Z,9.50
2023-04-27T00:04:33.930Z,13.10
2023-04-27T00:05:33.776Z,11.90
2023-04-27T00:06:33.709Z,11.80
2023-04-27T00:07:33.748Z,11.80
2023-04-27T00:08:33.691Z,12.00
2023-04-27T00:09:33.685Z,9.60
2023-04-27T00:10:33.675Z,13.40
2023-04-27T00:11:33.663Z,12.60
2023-04-27T00:12:33.665Z,11.60
2023-04-27T00:13:33.641Z,10.10
2023-04-27T00:14:33.629Z,9.50
2023-04-27T00:15:33.616Z,12.40
2023-04-27T00:16:33.682Z,11.80
2023-04-27T00:17:33.670Z,11.30
2023-04-27T00:18:33.577Z,13.90
2023-04-27T00:19:33.588Z,10.70
2023-04-27T00:20:33.551Z,10.90
2023-04-27T00:21:33.550Z,11.00
2023-04-27T00:22:33.575Z,10.50
2023-04-27T00:23:33.526Z,11.60
2023-04-27T00:24:33.511Z,10.70
2023-04-27T00:25:33.504Z,11.20
2023-04-27T00:26:33.490Z,11.40
2023-04-27T00:27:33.501Z,13.60
2023-04-27T00:28:33.474Z,10.90
2023-04-27T00:29:33.467Z,11.90
2023-04-27T00:30:33.455Z,12.90
2023-04-27T00:31:33.497Z,11.80
2023-04-27T00:32:33.456Z,10.50
2023-04-27T00:33:33.403Z,10.00
2023-04-27T00:34:33.395Z,10.10
2023-04-27T00:35:33.402Z,9.80
2023-04-27T00:36:33.381Z,11.00
2023-04-27T00:37:33.386Z,8.70
2023-04-27T00:38:33.353Z,10.20
2023-04-27T00:39:33.364Z,10.60
2023-04-27T00:40:33.328Z,10.80
2023-04-27T00:41:33.320Z,12.90
2023-04-27T00:42:33.325Z,11.50
2023-04-27T00:43:33.301Z,8.80
2023-04-27T00:44:33.281Z,13.40
2023-04-27T00:45:33.302Z,11.60
2023-04-27T00:46:33.311Z,10.60
2023-04-27T00:47:33.331Z,13.00
2023-04-27T00:48:33.240Z,9.10
2023-04-27T00:49:33.233Z,16.50
2023-04-27T00:50:33.225Z,10.60
2023-04-27T00:51:33.215Z,13.40
2023-04-27T00:52:33.317Z,9.40
2023-04-27T00:53:33.193Z,8.70
2023-04-27T00:54:33.173Z,11.30
2023-04-27T00:55:33.164Z,11.40
2023-04-27T00:56:33.148Z,11.80
2023-04-27T00:57:33.156Z,8.60
2023-04-27T00:58:33.174Z,10.30
2023-04-27T00:59:33.115Z,12.90
2023-04-27T01:00:33.107Z,9.90
2023-04-27T01:01:33.170Z,10.60
2023-04-27T01:02:33.229Z,12.40
2023-04-27T01:03:33.287Z,11.70
2023-04-27T01:04:33.227Z,11.10
2023-04-27T01:05:33.050Z,10.40
2023-04-27T01:06:33.030Z,9.80
2023-04-27T01:07:33.025Z,10.70
2023-04-27T01:08:33.030Z,11.50
2023-04-27T01:09:33.005Z,9.20
2023-04-27T01:10:33.008Z,9.30
2023-04-27T01:11:32.979Z,8.90
2023-04-27T01:12:32.963Z,9.50
2023-04-27T01:13:32.956Z,10.50
2023-04-27T01:14:33.010Z,8.70
2023-04-27T01:15:32.955Z,9.60
2023-04-27T01:16:32.958Z,7.80
2023-04-27T01:17:32.937Z,9.90
2023-04-27T01:18:32.899Z,11.00
2023-04-27T01:19:32.884Z,9.60
2023-04-27T01:20:32.905Z,9.20
2023-04-27T01:21:32.905Z,8.40
2023-04-27T01:22:32.858Z,10.40
2023-04-27T01:23:32.846Z,10.10
2023-04-27T01:24:32.838Z,13.30
2023-04-27T01:25:32.822Z,8.80
2023-04-27T01:26:32.820Z,9.70
2023-04-27T01:27:32.823Z,11.00
2023-04-27T01:28:32.837Z,10.40
2023-04-27T01:29:32.781Z,10.30
2023-04-27T01:30:32.760Z,9.80
2023-04-27T01:31:32.776Z,11.50
2023-04-27T01:32:32.756Z,9.40
2023-04-27T01:33:32.779Z,10.40
2023-04-27T01:34:32.717Z,11.10
2023-04-27T01:35:32.710Z,11.00
2023-04-27T01:36:32.701Z,11.90
2023-04-27T01:37:32.690Z,9.70
2023-04-27T01:38:32.668Z,8.20
2023-04-27T01:39:32.697Z,8.90
2023-04-27T01:40:32.665Z,10.30
2023-04-27T01:41:32.643Z,10.30
2023-04-27T01:42:32.645Z,12.50
2023-04-27T01:43:32.625Z,10.80
2023-04-27T01:44:32.614Z,10.90
2023-04-27T01:45:32.627Z,11.10
2023-04-27T01:46:32.633Z,10.20
2023-04-27T01:47:32.601Z,11.60
2023-04-27T01:48:32.562Z,10.50
2023-04-27T01:49:32.557Z,11.20
2023-04-27T01:50:32.539Z,9.60
2023-04-27T01:51:32.567Z,11.00
2023-04-27T01:52:32.535Z,9.70
2023-04-27T01:53:32.581Z,11.10
2023-04-27T01:54:32.506Z,9.00
2023-04-27T01:55:32.491Z,10.50
2023-04-27T01:56:32.487Z,10.90
2023-04-27T01:57:32.489Z,10.40
2023-04-27T01:58:32.479Z,10.20
2023-04-27T01:59:32.444Z,11.90
2023-04-27T02:00:32.457Z,8.70
2023-04-27T02:01:32.431Z,9.40
2023-04-27T02:02:32.568Z,11.40
2023-04-27T02:03:32.646Z,12.10
2023-04-27T02:04:32.560Z,12.40
2023-04-27T02:05:32.387Z,12.90
2023-04-27T02:06:32.372Z,14.00
2023-04-27T02:07:32.357Z,16.80
2023-04-27T02:08:32.371Z,12.10
2023-04-27T02:09:32.333Z,11.70
2023-04-27T02:10:32.343Z,13.70
2023-04-27T02:11:32.330Z,13.40
2023-04-27T02:12:32.307Z,13.40
2023-04-27T02:13:32.303Z,13.00
2023-04-27T02:14:32.300Z,11.50
2023-04-27T02:15:32.275Z,12.70
2023-04-27T02:16:32.306Z,14.30
2023-04-27T02:17:32.252Z,11.10
2023-04-27T02:18:32.272Z,12.60
2023-04-27T02:19:32.226Z,12.00
2023-04-27T02:20:32.212Z,13.50
2023-04-27T02:21:32.204Z,12.50
2023-04-27T02:22:32.191Z,12.80
2023-04-27T02:23:32.193Z,13.00
2023-04-27T02:24:32.172Z,11.10
2023-04-27T02:25:32.156Z,12.00
2023-04-27T02:26:32.137Z,13.60
2023-04-27T02:27:32.132Z,12.60
2023-04-27T02:28:32.165Z,11.60
2023-04-27T02:29:32.106Z,14.70
2023-04-27T02:30:32.105Z,11.30
2023-04-27T02:31:32.091Z,15.90
2023-04-27T02:32:32.102Z,13.60
2023-04-27T02:33:32.097Z,10.90
2023-04-27T02:34:32.057Z,11.40
2023-04-27T02:35:32.035Z,12.10
2023-04-27T02:36:32.032Z,9.40
2023-04-27T02:37:32.065Z,11.60
2023-04-27T02:38:32.031Z,13.10
2023-04-27T02:39:32.003Z,12.20
2023-04-27T02:40:31.990Z,12.60
2023-04-27T02:41:31.967Z,10.80
2023-04-27T02:42:31.967Z,13.00
2023-04-27T02:43:31.970Z,14.00
2023-04-27T02:44:31.946Z,14.80
2023-04-27T02:45:31.934Z,12.50
2023-04-27T02:46:31.950Z,10.10
2023-04-27T02:47:31.945Z,15.60
2023-04-27T02:48:31.926Z,12.30
2023-04-27T02:49:31.877Z,12.20
2023-04-27T02:50:31.882Z,12.90
2023-04-27T02:51:31.854Z,13.50
2023-04-27T02:52:31.847Z,13.40
2023-04-27T02:53:31.859Z,14.60
2023-04-27T02:54:31.829Z,12.40
2023-04-27T02:55:31.834Z,15.00
2023-04-27T02:56:31.805Z,15.70
2023-04-27T02:57:31.790Z,14.10
2023-04-27T02:58:31.839Z,15.10
2023-04-27T02:59:31.761Z,15.10
2023-04-27T03:00:31.763Z,14.40
2023-04-27T03:01:31.801Z,14.50
2023-04-27T03:02:31.774Z,14.60
2023-04-27T03:03:31.832Z,15.10
2023-04-27T03:04:31.788Z,14.10
2023-04-27T03:05:31.747Z,15.60
2023-04-27T03:06:31.681Z,19.10
2023-04-27T03:07:31.708Z,13.10
2023-04-27T03:08:31.700Z,12.50
2023-04-27T03:09:31.656Z,15.10
2023-04-27T03:10:31.645Z,11.90
2023-04-27T03:11:31.648Z,15.40
2023-04-27T03:12:31.626Z,12.80
2023-04-27T03:13:31.624Z,12.60
2023-04-27T03:14:31.607Z,15.10
2023-04-27T03:15:31.578Z,14.70
2023-04-27T03:16:31.624Z,15.00
2023-04-27T03:17:31.601Z,15.60
2023-04-27T03:18:31.583Z,10.80
2023-04-27T03:19:31.538Z,15.50
2023-04-27T03:20:31.532Z,12.20
2023-04-27T03:21:31.519Z,14.70
2023-04-27T03:22:31.512Z,15.30
2023-04-27T03:23:31.516Z,12.40
2023-04-27T03:24:31.488Z,14.30
2023-04-27T03:25:31.471Z,15.10
2023-04-27T03:26:31.471Z,13.10
2023-04-27T03:27:31.449Z,11.20
2023-04-27T03:28:31.468Z,14.00
2023-04-27T03:29:31.440Z,15.10
2023-04-27T03:30:31.426Z,14.90
2023-04-27T03:31:31.485Z,12.90
2023-04-27T03:32:31.444Z,14.80
2023-04-27T03:33:31.408Z,13.90
2023-04-27T03:34:31.371Z,12.40
2023-04-27T03:35:31.364Z,14.80
2023-04-27T03:36:31.354Z,13.40
2023-04-27T03:37:31.356Z,14.00
2023-04-27T03:38:31.353Z,14.30
2023-04-27T03:39:31.324Z,12.80
2023-04-27T03:40:31.318Z,15.00
2023-04-27T03:41:31.295Z,14.00
2023-04-27T03:42:31.295Z,16.00
2023-04-27T03:43:31.293Z,13.70
2023-04-27T03:44:31.267Z,14.50
2023-04-27T03:45:31.260Z,14.80
2023-04-27T03:46:31.272Z,12.80
2023-04-27T03:47:31.259Z,14.50
2023-04-27T03:48:31.237Z,12.80
2023-04-27T03:49:31.209Z,14.70
2023-04-27T03:50:31.195Z,15.30
2023-04-27T03:51:31.192Z,12.70
2023-04-27T03:52:31.169Z,12.60
2023-04-27T03:53:31.190Z,12.20
2023-04-27T03:54:31.150Z,13.10
2023-04-27T03:55:31.141Z,12.50
2023-04-27T03:56:31.125Z,15.10
2023-04-27T03:57:31.178Z,13.70
2023-04-27T03:58:31.127Z,14.60
2023-04-27T03:59:31.102Z,11.30
2023-04-27T04:00:31.081Z,11.70
2023-04-27T04:01:31.078Z,11.80
2023-04-27T04:02:31.183Z,10.80
2023-04-27T04:03:31.295Z,12.50
2023-04-27T04:04:31.220Z,10.10
2023-04-27T04:05:31.034Z,10.00
2023-04-27T04:06:31.025Z,11.20
2023-04-27T04:07:31.010Z,11.20
2023-04-27T04:08:31.011Z,10.00
2023-04-27T04:09:30.990Z,11.40
2023-04-27T04:10:30.970Z,11.40
2023-04-27T04:11:30.976Z,11.00
2023-04-27T04:12:30.944Z,12.90
2023-04-27T04:13:30.960Z,12.60
2023-04-27T04:14:30.923Z,12.80
2023-04-27T04:15:30.951Z,11.50
2023-04-27T04:16:30.928Z,11.80
2023-04-27T04:17:30.936Z,13.90
2023-04-27T04:18:30.965Z,13.50
2023-04-27T04:19:30.882Z,13.40
2023-04-27T04:20:30.853Z,15.60
2023-04-27T04:21:30.862Z,14.40
2023-04-27T04:22:30.833Z,13.90
2023-04-27T04:23:30.851Z,17.80
2023-04-27T04:24:30.818Z,16.20
2023-04-27T04:25:30.814Z,17.00
2023-04-27T04:26:30.801Z,17.00
2023-04-27T04:27:30.801Z,18.50
2023-04-27T04:28:30.805Z,18.00
2023-04-27T04:29:30.762Z,16.70
2023-04-27T04:30:30.751Z,15.20
2023-04-27T04:31:30.761Z,15.50
2023-04-27T04:32:30.724Z,16.50
2023-04-27T04:33:30.743Z,15.90
2023-04-27T04:34:30.699Z,16.30
2023-04-27T04:35:30.700Z,17.00
2023-04-27T04:36:30.686Z,15.60
2023-04-27T04:37:30.680Z,15.40
2023-04-27T04:38:30.680Z,16.60
2023-04-27T04:39:30.659Z,14.50
2023-04-27T04:40:30.639Z,15.30
2023-04-27T04:41:30.624Z,16.70
2023-04-27T04:42:30.614Z,20.30
2023-04-27T04:43:30.630Z,16.20
2023-04-27T04:44:30.587Z,14.90
2023-04-27T04:45:30.592Z,14.80
2023-04-27T04:46:30.665Z,14.60
2023-04-27T04:47:30.610Z,13.00
2023-04-27T04:48:30.567Z,13.70
2023-04-27T04:49:30.537Z,13.70
2023-04-27T04:50:30.528Z,13.20
2023-04-27T04:51:30.521Z,14.70
2023-04-27T04:52:30.498Z,12.90
2023-04-27T04:53:30.513Z,11.80
2023-04-27T04:54:30.482Z,14.20
2023-04-27T04:55:30.500Z,15.40
2023-04-27T04:56:30.460Z,15.50
2023-04-27T04:57:30.453Z,16.40
2023-04-27T04:58:30.463Z,14.00
2023-04-27T04:59:32.038Z,13.50
2023-04-27T05:00:30.419Z,12.50
2023-04-27T05:01:30.430Z,13.60
2023-04-27T05:02:30.510Z,13.90
2023-04-27T05:03:30.635Z,11.80
2023-04-27T05:04:30.575Z,15.30
2023-04-27T05:05:30.362Z,14.30
2023-04-27T05:06:30.345Z,16.80
2023-04-27T05:07:30.349Z,14.00
2023-04-27T05:08:30.394Z,20.00
2023-04-27T05:09:30.325Z,14.10
2023-04-27T05:10:30.294Z,16.30
2023-04-27T05:11:30.301Z,18.20
2023-04-27T05:12:30.289Z,18.40
2023-04-27T05:13:30.296Z,17.30
2023-04-27T05:14:30.265Z,15.50
2023-04-27T05:15:30.252Z,15.60
2023-04-27T05:16:30.272Z,15.00
2023-04-27T05:17:30.292Z,13.70
2023-04-27T05:18:30.425Z,12.90
2023-04-27T05:19:30.231Z,17.70
2023-04-27T05:20:30.203Z,15.80
2023-04-27T05:21:30.232Z,16.20
2023-04-27T05:22:30.178Z,14.40
2023-04-27T05:23:30.197Z,16.80
2023-04-27T05:24:30.149Z,16.00
2023-04-27T05:25:30.135Z,16.50
2023-04-27T05:26:30.126Z,21.50
2023-04-27T05:27:30.115Z,17.30
2023-04-27T05:28:30.137Z,17.50
2023-04-27T05:29:30.095Z,17.60
2023-04-27T05:30:30.089Z,16.70
2023-04-27T05:31:30.122Z,15.60
2023-04-27T05:32:30.068Z,16.70
2023-04-27T05:33:30.070Z,18.20
2023-04-27T05:34:30.036Z,18.00
2023-04-27T05:35:30.037Z,19.40
2023-04-27T05:36:30.010Z,16.70
2023-04-27T05:37:30.004Z,14.40
2023-04-27T05:38:30.001Z,21.30
2023-04-27T05:39:29.983Z,15.30
2023-04-27T05:40:29.970Z,16.70
2023-04-27T05:41:29.960Z,17.20
2023-04-27T05:42:29.947Z,16.70
2023-04-27T05:43:29.971Z,20.00
2023-04-27T05:44:29.920Z,18.10
2023-04-27T05:45:29.955Z,18.20
2023-04-27T05:46:29.988Z,17.50
2023-04-27T05:47:29.903Z,17.90
2023-04-27T05:48:29.894Z,18.10
2023-04-27T05:49:29.863Z,19.10
2023-04-27T05:50:29.853Z,18.20
2023-04-27T05:51:29.845Z,15.70
2023-04-27T05:52:29.827Z,16.90
2023-04-27T05:53:29.840Z,15.10
2023-04-27T05:54:29.806Z,17.40
2023-04-27T05:55:29.801Z,17.60
2023-04-27T05:56:29.788Z,23.40
2023-04-27T05:57:29.780Z,24.40
2023-04-27T05:58:29.795Z,27.20
2023-04-27T05:59:29.766Z,26.40
2023-04-27T06:00:29.807Z,32.00
2023-04-27T06:01:29.743Z,30.20
2023-04-27T06:02:29.780Z,29.70
2023-04-27T06:03:29.841Z,41.70
2023-04-27T06:04:29.861Z,23.90
2023-04-27T06:05:29.757Z,36.10
2023-04-27T06:06:29.669Z,52.60
2023-04-27T06:07:29.675Z,47.90
2023-04-27T06:08:29.685Z,39.40
2023-04-27T06:09:29.653Z,37.00
2023-04-27T06:10:29.626Z,48.60
2023-04-27T06:11:29.624Z,82.30
2023-04-27T06:12:29.611Z,31.10
2023-04-27T06:13:29.617Z,21.70
2023-04-27T06:14:29.588Z,25.60
2023-04-27T06:15:29.586Z,44.60
2023-04-27T06:16:29.764Z,41.80
2023-04-27T06:17:29.587Z,31.00
2023-04-27T06:18:29.563Z,21.00
2023-04-27T06:19:29.553Z,19.90
2023-04-27T06:20:29.545Z,28.90
2023-04-27T06:21:29.529Z,18.80
2023-04-27T06:22:29.489Z,25.60
2023-04-27T06:23:29.506Z,32.30
2023-04-27T06:24:29.466Z,19.00
2023-04-27T06:25:29.487Z,13.20
2023-04-27T06:26:29.454Z,18.70
2023-04-27T06:27:29.458Z,17.50
2023-04-27T06:28:29.459Z,11.30
2023-04-27T06:29:29.414Z,9.20
2023-04-27T06:30:29.414Z,10.50
2023-04-27T06:31:29.454Z,8.30
2023-04-27T06:32:29.430Z,9.00
2023-04-27T06:33:29.454Z,13.60
2023-04-27T06:34:29.365Z,18.20
2023-04-27T06:35:29.349Z,9.90
2023-04-27T06:36:29.331Z,8.90
2023-04-27T06:37:29.326Z,12.80
2023-04-27T06:38:29.336Z,8.60
2023-04-27T06:39:29.302Z,11.00
2023-04-27T06:40:29.291Z,11.20
2023-04-27T06:41:29.273Z,9.80
2023-04-27T06:42:29.263Z,11.30
2023-04-27T06:43:29.281Z,11.10
2023-04-27T06:44:29.240Z,13.90
2023-04-27T06:45:29.252Z,8.30
2023-04-27T06:46:29.304Z,11.00
2023-04-27T06:47:29.396Z,12.00
2023-04-27T06:48:29.217Z,9.50
2023-04-27T06:49:29.196Z,8.00
2023-04-27T06:50:29.224Z,9.50
2023-04-27T06:51:29.165Z,8.70
2023-04-27T06:52:29.153Z,8.90
2023-04-27T06:53:29.164Z,12.60
2023-04-27T06:54:29.130Z,10.00
2023-04-27T06:55:29.131Z,10.40
2023-04-27T06:56:29.106Z,9.80
2023-04-27T06:57:29.098Z,10.00
2023-04-27T06:58:29.118Z,8.30
2023-04-27T06:59:29.084Z,9.70
2023-04-27T07:00:29.062Z,10.30
2023-04-27T07:01:29.093Z,8.20
2023-04-27T07:02:29.087Z,7.60
2023-04-27T07:03:29.255Z,8.00
2023-04-27T07:04:29.109Z,11.30
2023-04-27T07:05:29.018Z,8.60
2023-04-27T07:06:28.999Z,11.00
2023-04-27T07:07:28.987Z,8.60
2023-04-27T07:08:28.997Z,8.80
2023-04-27T07:09:29.250Z,7.60
2023-04-27T07:10:28.945Z,7.30
2023-04-27T07:11:28.947Z,8.00
2023-04-27T07:12:28.933Z,9.40
2023-04-27T07:13:28.967Z,5.70
2023-04-27T07:14:28.901Z,9.40
2023-04-27T07:15:28.896Z,8.70
2023-04-27T07:16:28.906Z,8.40
2023-04-27T07:17:28.894Z,11.00
2023-04-27T07:18:28.906Z,5.70
2023-04-27T07:19:28.869Z,7.20
2023-04-27T07:20:28.839Z,6.50
2023-04-27T07:21:28.829Z,8.00
2023-04-27T07:22:28.824Z,9.30
2023-04-27T07:23:28.844Z,6.60
2023-04-27T07:24:28.794Z,9.40
2023-04-27T07:25:28.782Z,6.60
2023-04-27T07:26:28.760Z,6.80
2023-04-27T07:27:28.779Z,8.20
2023-04-27T07:28:28.762Z,6.50
2023-04-27T07:29:29.094Z,6.70
2023-04-27T07:30:28.724Z,6.90
2023-04-27T07:31:28.720Z,7.00
2023-04-27T07:32:28.762Z,7.00
2023-04-27T07:33:28.715Z,7.30
2023-04-27T07:34:35.018Z,8.90
2023-04-27T07:35:28.670Z,5.30
2023-04-27T07:36:28.650Z,5.40
2023-04-27T07:37:28.649Z,5.50
2023-04-27T07:38:28.649Z,6.60
2023-04-27T07:39:28.622Z,6.90
2023-04-27T07:40:28.617Z,5.10
2023-04-27T07:41:28.599Z,8.10
2023-04-27T07:42:28.595Z,9.10
2023-04-27T07:43:28.597Z,7.70
2023-04-27T07:44:28.551Z,8.00
2023-04-27T07:45:28.597Z,7.70
2023-04-27T07:46:28.533Z,6.90
2023-04-27T07:47:28.539Z,8.50
2023-04-27T07:48:28.675Z,6.40
2023-04-27T07:49:28.525Z,6.40
2023-04-27T07:50:28.505Z,6.60
2023-04-27T07:51:28.565Z,8.10
2023-04-27T07:52:28.463Z,10.70
2023-04-27T07:53:28.487Z,8.30
2023-04-27T07:54:28.451Z,7.40
2023-04-27T07:55:28.432Z,8.40
2023-04-27T07:56:28.417Z,9.40
2023-04-27T07:57:28.414Z,10.10
2023-04-27T07:58:28.422Z,6.40
2023-04-27T07:59:28.387Z,7.90
2023-04-27T08:00:28.386Z,5.10
2023-04-27T08:01:28.357Z,7.50
2023-04-27T08:02:28.461Z,4.60
2023-04-27T08:03:28.658Z,7.00
2023-04-27T08:04:28.698Z,8.80
2023-04-27T08:05:28.942Z,6.50
2023-04-27T08:06:28.756Z,5.60
2023-04-27T08:07:28.416Z,7.40
2023-04-27T08:08:28.308Z,5.90
2023-04-27T08:09:28.273Z,8.70
2023-04-27T08:10:28.264Z,6.20
2023-04-27T08:11:28.260Z,8.20
2023-04-27T08:12:28.244Z,6.20
2023-04-27T08:13:28.247Z,8.60
2023-04-27T08:14:28.219Z,7.80
2023-04-27T08:15:28.217Z,7.40
2023-04-27T08:16:28.237Z,6.60
2023-04-27T08:17:28.184Z,6.30
2023-04-27T08:18:28.216Z,5.60
2023-04-27T08:19:28.159Z,4.80
2023-04-27T08:20:28.152Z,10.70
2023-04-27T08:21:28.141Z,5.80
2023-04-27T08:22:28.144Z,5.30
2023-04-27T08:23:28.160Z,7.20
2023-04-27T08:24:28.123Z,6.50
2023-04-27T08:25:28.085Z,7.50
2023-04-27T08:26:28.096Z,6.50
2023-04-27T08:27:28.067Z,7.40
2023-04-27T08:28:28.095Z,7.60
2023-04-27T08:29:29.092Z,7.30
2023-04-27T08:30:28.039Z,8.20
2023-04-27T08:31:28.049Z,6.40
2023-04-27T08:32:28.082Z,5.60
2023-04-27T08:33:28.026Z,5.50
2023-04-27T08:34:28.004Z,7.10
2023-04-27T08:35:27.976Z,6.30
2023-04-27T08:36:27.978Z,7.00
2023-04-27T08:37:27.955Z,8.30
2023-04-27T08:38:27.972Z,5.70
2023-04-27T08:39:27.978Z,5.60
2023-04-27T08:40:27.931Z,6.60
2023-04-27T08:41:27.913Z,5.00
2023-04-27T08:42:27.903Z,5.90
2023-04-27T08:43:27.916Z,5.50
2023-04-27T08:44:27.884Z,4.80
2023-04-27T08:45:27.862Z,7.10
2023-04-27T08:46:27.880Z,7.10
2023-04-27T08:47:39.126Z,6.90
2023-04-27T08:48:27.881Z,8.30
2023-04-27T08:49:27.840Z,7.70
2023-04-27T08:50:27.817Z,5.50
2023-04-27T08:51:27.787Z,5.80
2023-04-27T08:52:27.861Z,6.70
2023-04-27T08:53:27.795Z,5.30
2023-04-27T08:54:27.817Z,7.30
2023-04-27T08:55:27.752Z,6.80
2023-04-27T08:56:27.749Z,4.70
2023-04-27T08:57:27.747Z,8.40
2023-04-27T08:58:27.751Z,7.40
2023-04-27T08:59:27.713Z,6.30
2023-04-27T09:00:27.721Z,5.40
2023-04-27T09:01:27.855Z,5.10
2023-04-27T09:02:27.747Z,4.30
2023-04-27T09:03:27.778Z,7.30
2023-04-27T09:04:27.741Z,5.90
2023-04-27T09:05:27.676Z,7.00
2023-04-27T09:06:27.678Z,6.50
2023-04-27T09:07:28.756Z,5.60
2023-04-27T09:08:27.625Z,6.20
2023-04-27T09:09:27.587Z,6.20
2023-04-27T09:10:27.597Z,7.60
2023-04-27T09:11:27.567Z,5.90
2023-04-27T09:12:27.562Z,4.70
2023-04-27T09:13:27.601Z,4.50
2023-04-27T09:14:27.537Z,6.20
2023-04-27T09:15:27.545Z,5.80
2023-04-27T09:16:27.553Z,5.70
2023-04-27T09:17:27.544Z,4.90
2023-04-27T09:18:27.505Z,6.00
2023-04-27T09:19:27.511Z,5.20
2023-04-27T09:20:27.633Z,6.20
2023-04-27T09:21:27.465Z,5.70
2023-04-27T09:22:27.449Z,5.70
2023-04-27T09:23:27.433Z,5.60
2023-04-27T09:24:27.449Z,9.20
2023-04-27T09:25:27.421Z,8.00
2023-04-27T09:26:27.412Z,7.00
2023-04-27T09:27:27.392Z,6.90
2023-04-27T09:28:27.393Z,7.40
2023-04-27T09:29:27.388Z,5.20
2023-04-27T09:30:27.366Z,5.50
2023-04-27T09:31:27.375Z,7.60
2023-04-27T09:32:27.343Z,8.60
2023-04-27T09:33:27.325Z,5.70
2023-04-27T09:34:27.335Z,4.40
2023-04-27T09:35:27.300Z,6.80
2023-04-27T09:36:27.290Z,5.50
2023-04-27T09:37:27.287Z,5.40
2023-04-27T09:38:27.267Z,5.50
2023-04-27T09:39:27.267Z,5.70
2023-04-27T09:40:27.246Z,5.50
2023-04-27T09:41:27.240Z,5.90
2023-04-27T09:42:27.226Z,6.60
2023-04-27T09:43:27.206Z,6.20
2023-04-27T09:44:27.225Z,6.10
2023-04-27T09:45:27.199Z,6.60
2023-04-27T09:46:27.255Z,5.70
2023-04-27T09:47:27.233Z,6.20
2023-04-27T09:48:27.164Z,4.90
2023-04-27T09:49:27.161Z,5.20
2023-04-27T09:50:27.143Z,6.30
2023-04-27T09:51:27.108Z,5.00
2023-04-27T09:52:27.096Z,6.20
2023-04-27T09:53:27.092Z,8.30
2023-04-27T09:54:27.100Z,5.70
2023-04-27T09:55:27.067Z,5.20
2023-04-27T09:56:27.054Z,5.40
2023-04-27T09:57:27.039Z,6.70
2023-04-27T09:58:27.061Z,6.00
2023-04-27T09:59:27.040Z,4.90
2023-04-27T10:00:27.016Z,6.70
2023-04-27T10:01:27.070Z,6.20
2023-04-27T10:02:27.099Z,6.20
2023-04-27T10:03:27.080Z,6.20
2023-04-27T10:04:27.184Z,4.10
2023-04-27T10:05:27.021Z,5.90
2023-04-27T10:06:26.950Z,7.70
2023-04-27T10:07:26.927Z,5.10
2023-04-27T10:08:26.940Z,6.40
2023-04-27T10:09:26.943Z,4.60
2023-04-27T10:10:26.894Z,4.40
2023-04-27T10:11:26.896Z,6.90
2023-04-27T10:12:26.894Z,6.40
2023-04-27T10:13:26.858Z,6.30
2023-04-27T10:14:26.874Z,5.20
2023-04-27T10:15:26.844Z,5.70
2023-04-27T10:16:26.859Z,5.20
2023-04-27T10:17:26.984Z,5.70
2023-04-27T10:18:26.807Z,5.30
2023-04-27T10:19:26.814Z,5.70
2023-04-27T10:20:26.782Z,4.80
2023-04-27T10:21:26.774Z,7.10
2023-04-27T10:22:26.764Z,8.50
2023-04-27T10:23:26.773Z,5.90
2023-04-27T10:24:26.758Z,4.50
2023-04-27T10:25:26.727Z,7.20
2023-04-27T10:26:26.752Z,7.10
2023-04-27T10:27:26.705Z,5.30
2023-04-27T10:28:26.697Z,5.60
2023-04-27T10:29:26.695Z,5.90
2023-04-27T10:30:26.678Z,6.20
2023-04-27T10:31:26.748Z,5.00
2023-04-27T10:32:26.683Z,4.90
2023-04-27T10:33:26.633Z,6.50
2023-04-27T10:34:26.666Z,4.80
2023-04-27T10:35:26.629Z,6.50
2023-04-27T10:36:26.618Z,5.70
2023-04-27T10:37:26.588Z,5.60
2023-04-27T10:38:26.595Z,4.90
2023-04-27T10:39:39.774Z,4.50
2023-04-27T10:40:26.569Z,4.70
2023-04-27T10:41:26.560Z,5.40
2023-04-27T10:42:26.546Z,6.40
2023-04-27T10:43:26.573Z,4.40
2023-04-27T10:44:26.543Z,6.10
2023-04-27T10:45:28.462Z,6.10
2023-04-27T10:46:26.527Z,7.00
2023-04-27T10:47:26.538Z,5.80
2023-04-27T10:48:26.520Z,8.50
2023-04-27T10:49:26.476Z,6.30
2023-04-27T10:50:26.466Z,4.80
2023-04-27T10:51:26.435Z,4.60
2023-04-27T10:52:26.429Z,9.30
2023-04-27T10:53:26.420Z,5.10
2023-04-27T10:54:26.423Z,5.20
2023-04-27T10:55:26.388Z,5.20
2023-04-27T10:56:26.388Z,5.00
2023-04-27T10:57:26.366Z,4.40
2023-04-27T10:58:34.623Z,5.90
2023-04-27T10:59:26.380Z,5.50
2023-04-27T11:00:26.344Z,5.30
2023-04-27T11:01:26.409Z,8.60
2023-04-27T11:02:26.382Z,7.90
2023-04-27T11:03:26.349Z,7.40
2023-04-27T11:04:26.335Z,6.60
2023-04-27T11:05:26.285Z,6.90
2023-04-27T11:06:26.285Z,7.00
2023-04-27T11:07:26.261Z,7.70
2023-04-27T11:08:26.270Z,5.60
2023-04-27T11:09:26.298Z,6.80
2023-04-27T11:10:26.293Z,6.70
2023-04-27T11:11:26.223Z,5.70
2023-04-27T11:12:26.199Z,6.70
2023-04-27T11:13:26.221Z,5.50
2023-04-27T11:14:26.197Z,6.40
2023-04-27T11:15:26.162Z,4.60
2023-04-27T11:16:26.236Z,6.10
2023-04-27T11:17:26.187Z,5.10
2023-04-27T11:18:26.134Z,5.30
2023-04-27T11:19:26.137Z,5.60
2023-04-27T11:20:26.116Z,5.70
2023-04-27T11:21:26.098Z,5.40
2023-04-27T11:22:26.090Z,6.80
2023-04-27T11:23:26.114Z,5.60
2023-04-27T11:24:26.102Z,5.70
2023-04-27T11:25:26.052Z,4.60
2023-04-27T11:26:26.039Z,6.60
2023-04-27T11:27:26.027Z,6.90
2023-04-27T11:28:26.023Z,4.70
2023-04-27T11:29:26.026Z,5.30
2023-04-27T11:30:25.999Z,4.80
2023-04-27T11:31:26.064Z,5.30
2023-04-27T11:32:26.036Z,5.70
2023-04-27T11:33:25.954Z,5.70
2023-04-27T11:34:25.968Z,5.00
2023-04-27T11:35:25.935Z,5.80
2023-04-27T11:36:25.929Z,6.30
2023-04-27T11:37:25.916Z,6.10
2023-04-27T11:38:25.962Z,5.10
2023-04-27T11:39:25.964Z,6.20
2023-04-27T11:40:25.911Z,4.90
2023-04-27T11:41:25.866Z,7.00
2023-04-27T11:42:25.913Z,6.30
2023-04-27T11:43:25.849Z,5.50
2023-04-27T11:44:25.855Z,5.70
2023-04-27T11:45:25.826Z,5.50
2023-04-27T11:46:25.819Z,5.70
2023-04-27T11:47:25.963Z,5.10
2023-04-27T11:48:25.790Z,7.80
2023-04-27T11:49:25.864Z,6.80
2023-04-27T11:50:25.769Z,6.00
2023-04-27T11:51:25.801Z,6.20
2023-04-27T11:52:25.751Z,5.20
2023-04-27T11:53:25.746Z,7.30
2023-04-27T11:54:25.761Z,5.40
2023-04-27T11:55:25.707Z,5.10
2023-04-27T11:56:25.696Z,6.80
2023-04-27T11:57:25.702Z,6.20
2023-04-27T11:58:25.676Z,5.60
2023-04-27T11:59:25.688Z,6.00
2023-04-27T12:00:25.666Z,6.20
2023-04-27T12:01:37.095Z,5.80
2023-04-27T12:02:25.762Z,4.80
2023-04-27T12:03:25.841Z,6.70
2023-04-27T12:04:25.824Z,6.00
2023-04-27T12:05:25.695Z,5.00
2023-04-27T12:06:32.768Z,5.70
2023-04-27T12:07:25.585Z,4.60
2023-04-27T12:08:25.647Z,6.40
2023-04-27T12:09:25.583Z,5.10
2023-04-27T12:10:25.556Z,4.90
2023-04-27T12:11:25.529Z,5.30
2023-04-27T12:12:25.557Z,5.70
2023-04-27T12:13:25.503Z,4.30
2023-04-27T12:14:25.540Z,4.50
2023-04-27T12:15:25.473Z,5.40
2023-04-27T12:16:25.530Z,5.30
2023-04-27T12:17:25.488Z,4.50
2023-04-27T12:18:25.442Z,4.50
2023-04-27T12:19:25.480Z,6.60
2023-04-27T12:20:25.460Z,4.70
2023-04-27T12:21:25.422Z,5.00
2023-04-27T12:22:25.393Z,4.90
2023-04-27T12:23:25.393Z,3.90
2023-04-27T12:24:25.457Z,6.20
2023-04-27T12:25:25.370Z,6.00
2023-04-27T12:26:25.356Z,6.40
2023-04-27T12:27:25.345Z,5.60
2023-04-27T12:28:25.323Z,5.50
2023-04-27T12:29:25.348Z,6.60
2023-04-27T12:30:25.310Z,5.10
2023-04-27T12:31:27.550Z,5.90
2023-04-27T12:32:25.285Z,5.30
2023-04-27T12:33:25.288Z,5.40
2023-04-27T12:34:25.285Z,6.50
2023-04-27T12:35:25.252Z,6.50
2023-04-27T12:36:25.263Z,5.00
2023-04-27T12:37:26.937Z,5.90
2023-04-27T12:38:25.205Z,4.30
2023-04-27T12:39:25.345Z,6.50
2023-04-27T12:40:25.191Z,5.20
2023-04-27T12:41:25.180Z,4.20
2023-04-27T12:42:25.183Z,4.50
2023-04-27T12:43:25.158Z,5.10
2023-04-27T12:44:25.161Z,6.30
2023-04-27T12:45:25.151Z,5.10
2023-04-27T12:46:25.180Z,8.60
2023-04-27T12:47:43.134Z,20.70
2023-04-27T12:48:25.134Z,8.40
2023-04-27T12:49:25.107Z,6.00
2023-04-27T12:50:25.069Z,11.50
2023-04-27T12:51:25.088Z,7.40
2023-04-27T12:52:25.050Z,7.10
2023-04-27T12:53:25.042Z,6.90
2023-04-27T12:54:25.062Z,7.00
2023-04-27T12:55:33.087Z,4.40
2023-04-27T12:56:25.041Z,4.70
2023-04-27T12:57:25.003Z,4.70
2023-04-27T12:58:24.989Z,6.40
2023-04-27T12:59:24.996Z,6.90
2023-04-27T13:00:24.977Z,6.10
2023-04-27T13:01:25.011Z,4.60
2023-04-27T13:02:25.000Z,5.40
2023-04-27T13:03:25.115Z,5.90
2023-04-27T13:04:25.092Z,5.90
2023-04-27T13:05:24.926Z,5.50